Royal Oak, Arkansas
Current Conditions -  °F | °C
As of 8:53 PM on Sunday 23 Nov 2014 (Local Time) from KLIT Reporting Station
Few Clouds Few Clouds  
Wind Chill: 62°   Ceiling: Unl
Heat Index: 62°   Visibility: 10mi
Dew Point: 57°   Wind: 10mph
Humidity: 84%   Direction: 200°SSW
Pressure: 29.4"   Gusts: NA
Location:  34.5918°N, 92.381°W
Report Text: KLIT 240253Z 20009KT 10SM FEW065 17/14 A2940 RMK AO2 SLP956 T01670139 58003
Loading
Personal Weather Stations






























Interactive Weather Map New forecast layout! Learn more

10-Day Weather Forecast

Advertisements
Track Severe Weather on mobile